Alamo, Nevada
Current Conditions -  °F | °C
As of 10:58 AM on Sunday 21 Dec 2014 (Local Time) from KINS Reporting Station
Few Clouds Few Clouds  
Wind Chill: 10°   Ceiling: Unl
Heat Index: 10°   Visibility: 10mi
Dew Point:   Wind: 5mph
Humidity: 61%   Direction: NA
Pressure: 30.15"   Gusts: NA
Location:  37.36°N, 115.16°W
Report Text: KINS 211858Z AUTO VRB04KT 10SM FEW190 10/03 A3015 RMK AO2 SLP202 T01030030
Loading
Personal Weather Stations






























Interactive Weather Map New forecast layout! Learn more

10-Day Weather Forecast

Advertisements
Track Severe Weather on mobile